sensor_id;sensor_type;location;lat;lon;timestamp;P1;durP1;ratioP1;P2;durP2;ratioP2
37781;SDS011;23621;50.878;4.584;2023-06-10T00:00:12;6.72;;;6.13;;
37781;SDS011;23621;50.878;4.584;2023-06-10T00:03:01;7.53;;;6.82;;
37781;SDS011;23621;50.878;4.584;2023-06-10T00:05:49;7.80;;;6.43;;
37781;SDS011;23621;50.878;4.584;2023-06-10T00:08:36;7.10;;;6.50;;
37781;SDS011;23621;50.878;4.584;2023-06-10T00:11:24;8.02;;;7.22;;
37781;SDS011;23621;50.878;4.584;2023-06-10T00:14:11;7.47;;;6.72;;
37781;SDS011;23621;50.878;4.584;2023-06-10T00:16:59;6.85;;;6.25;;
37781;SDS011;23621;50.878;4.584;2023-06-10T00:19:46;8.00;;;6.32;;
37781;SDS011;23621;50.878;4.584;2023-06-10T00:22:34;7.20;;;6.47;;
37781;SDS011;23621;50.878;4.584;2023-06-10T00:25:21;8.18;;;6.57;;
37781;SDS011;23621;50.878;4.584;2023-06-10T00:28:09;9.20;;;6.97;;
37781;SDS011;23621;50.878;4.584;2023-06-10T00:30:56;7.65;;;6.85;;
37781;SDS011;23621;50.878;4.584;2023-06-10T00:33:44;8.38;;;7.07;;
37781;SDS011;23621;50.878;4.584;2023-06-10T00:36:35;7.60;;;7.00;;
37781;SDS011;23621;50.878;4.584;2023-06-10T00:39:22;8.07;;;7.28;;
37781;SDS011;23621;50.878;4.584;2023-06-10T00:42:10;7.30;;;6.57;;
37781;SDS011;23621;50.878;4.584;2023-06-10T00:44:57;7.63;;;7.03;;
37781;SDS011;23621;50.878;4.584;2023-06-10T00:47:44;8.00;;;7.30;;
37781;SDS011;23621;50.878;4.584;2023-06-10T00:50:31;7.97;;;6.97;;
37781;SDS011;23621;50.878;4.584;2023-06-10T00:53:19;7.88;;;7.07;;
37781;SDS011;23621;50.878;4.584;2023-06-10T00:56:08;7.65;;;6.90;;
37781;SDS011;23621;50.878;4.584;2023-06-10T00:58:56;7.72;;;7.03;;
37781;SDS011;23621;50.878;4.584;2023-06-10T01:01:45;7.55;;;6.60;;
37781;SDS011;23621;50.878;4.584;2023-06-10T01:04:35;7.72;;;6.93;;
37781;SDS011;23621;50.878;4.584;2023-06-10T01:07:24;7.53;;;6.78;;
37781;SDS011;23621;50.878;4.584;2023-06-10T01:13:06;7.22;;;6.43;;
37781;SDS011;23621;50.878;4.584;2023-06-10T01:15:58;7.15;;;6.47;;
37781;SDS011;23621;50.878;4.584;2023-06-10T01:18:46;7.97;;;7.28;;
37781;SDS011;23621;50.878;4.584;2023-06-10T01:21:33;9.32;;;7.68;;
37781;SDS011;23621;50.878;4.584;2023-06-10T01:24:20;7.65;;;6.95;;
37781;SDS011;23621;50.878;4.584;2023-06-10T01:27:09;8.13;;;7.30;;
37781;SDS011;23621;50.878;4.584;2023-06-10T01:30:04;7.53;;;6.78;;
37781;SDS011;23621;50.878;4.584;2023-06-10T01:33:06;8.05;;;7.35;;
37781;SDS011;23621;50.878;4.584;2023-06-10T01:35:56;7.95;;;7.32;;
37781;SDS011;23621;50.878;4.584;2023-06-10T01:38:45;9.93;;;8.00;;
37781;SDS011;23621;50.878;4.584;2023-06-10T01:41:34;8.30;;;7.55;;
37781;SDS011;23621;50.878;4.584;2023-06-10T01:44:22;8.20;;;7.50;;
37781;SDS011;23621;50.878;4.584;2023-06-10T01:47:10;8.55;;;7.82;;
37781;SDS011;23621;50.878;4.584;2023-06-10T01:49:57;8.48;;;7.78;;
37781;SDS011;23621;50.878;4.584;2023-06-10T01:52:45;9.32;;;8.35;;
37781;SDS011;23621;50.878;4.584;2023-06-10T01:55:33;8.23;;;7.53;;
37781;SDS011;23621;50.878;4.584;2023-06-10T01:58:20;8.93;;;8.13;;
37781;SDS011;23621;50.878;4.584;2023-06-10T02:01:08;8.90;;;8.10;;
37781;SDS011;23621;50.878;4.584;2023-06-10T02:03:55;8.80;;;8.10;;
37781;SDS011;23621;50.878;4.584;2023-06-10T02:06:42;9.32;;;8.43;;
37781;SDS011;23621;50.878;4.584;2023-06-10T02:09:30;8.52;;;7.82;;
37781;SDS011;23621;50.878;4.584;2023-06-10T02:12:17;9.13;;;8.32;;
37781;SDS011;23621;50.878;4.584;2023-06-10T02:15:05;8.80;;;8.00;;
37781;SDS011;23621;50.878;4.584;2023-06-10T02:17:53;9.77;;;8.98;;
37781;SDS011;23621;50.878;4.584;2023-06-10T02:20:41;9.18;;;8.38;;
37781;SDS011;23621;50.878;4.584;2023-06-10T02:23:28;9.95;;;8.95;;
37781;SDS011;23621;50.878;4.584;2023-06-10T02:26:15;9.15;;;8.45;;
37781;SDS011;23621;50.878;4.584;2023-06-10T02:29:03;9.57;;;8.73;;
37781;SDS011;23621;50.878;4.584;2023-06-10T02:31:50;9.35;;;8.45;;
37781;SDS011;23621;50.878;4.584;2023-06-10T02:34:39;9.40;;;8.60;;
37781;SDS011;23621;50.878;4.584;2023-06-10T02:37:27;9.55;;;8.75;;
37781;SDS011;23621;50.878;4.584;2023-06-10T02:40:14;9.95;;;9.13;;
37781;SDS011;23621;50.878;4.584;2023-06-10T02:43:01;9.50;;;8.63;;
37781;SDS011;23621;50.878;4.584;2023-06-10T02:45:49;9.52;;;8.73;;
37781;SDS011;23621;50.878;4.584;2023-06-10T02:48:43;10.85;;;8.90;;
37781;SDS011;23621;50.878;4.584;2023-06-10T02:51:30;9.43;;;8.63;;
37781;SDS011;23621;50.878;4.584;2023-06-10T02:54:17;9.38;;;8.50;;
37781;SDS011;23621;50.878;4.584;2023-06-10T02:57:05;10.20;;;9.30;;
37781;SDS011;23621;50.878;4.584;2023-06-10T02:59:52;9.57;;;8.77;;
37781;SDS011;23621;50.878;4.584;2023-06-10T03:02:40;10.32;;;9.25;;
37781;SDS011;23621;50.878;4.584;2023-06-10T03:05:28;9.90;;;9.00;;
37781;SDS011;23621;50.878;4.584;2023-06-10T03:08:19;9.43;;;8.63;;
37781;SDS011;23621;50.878;4.584;2023-06-10T03:11:06;10.13;;;9.20;;
37781;SDS011;23621;50.878;4.584;2023-06-10T03:13:57;10.13;;;9.27;;
37781;SDS011;23621;50.878;4.584;2023-06-10T03:16:44;10.82;;;9.57;;
37781;SDS011;23621;50.878;4.584;2023-06-10T03:19:32;10.63;;;9.73;;
37781;SDS011;23621;50.878;4.584;2023-06-10T03:22:20;10.10;;;9.20;;
37781;SDS011;23621;50.878;4.584;2023-06-10T03:25:08;10.68;;;9.68;;
37781;SDS011;23621;50.878;4.584;2023-06-10T03:28:01;10.05;;;9.18;;
37781;SDS011;23621;50.878;4.584;2023-06-10T03:30:48;10.68;;;9.70;;
37781;SDS011;23621;50.878;4.584;2023-06-10T03:33:35;10.27;;;9.27;;
37781;SDS011;23621;50.878;4.584;2023-06-10T03:36:25;10.75;;;9.75;;
37781;SDS011;23621;50.878;4.584;2023-06-10T03:39:15;11.30;;;10.20;;
37781;SDS011;23621;50.878;4.584;2023-06-10T03:42:03;10.18;;;9.27;;
37781;SDS011;23621;50.878;4.584;2023-06-10T03:44:51;11.13;;;10.05;;
37781;SDS011;23621;50.878;4.584;2023-06-10T03:47:38;9.68;;;8.93;;
37781;SDS011;23621;50.878;4.584;2023-06-10T03:50:27;10.10;;;9.25;;
37781;SDS011;23621;50.878;4.584;2023-06-10T03:53:14;10.10;;;9.25;;
37781;SDS011;23621;50.878;4.584;2023-06-10T03:56:02;10.30;;;9.40;;
37781;SDS011;23621;50.878;4.584;2023-06-10T03:58:49;10.85;;;9.88;;
37781;SDS011;23621;50.878;4.584;2023-06-10T04:01:36;10.32;;;9.43;;
37781;SDS011;23621;50.878;4.584;2023-06-10T04:04:24;10.55;;;9.65;;
37781;SDS011;23621;50.878;4.584;2023-06-10T04:07:12;9.55;;;8.60;;
37781;SDS011;23621;50.878;4.584;2023-06-10T04:10:00;9.95;;;9.05;;
37781;SDS011;23621;50.878;4.584;2023-06-10T04:12:47;10.30;;;9.25;;
37781;SDS011;23621;50.878;4.584;2023-06-10T04:15:35;10.13;;;9.30;;
37781;SDS011;23621;50.878;4.584;2023-06-10T04:18:23;11.25;;;10.25;;
37781;SDS011;23621;50.878;4.584;2023-06-10T04:21:10;10.90;;;9.90;;
37781;SDS011;23621;50.878;4.584;2023-06-10T04:23:57;10.27;;;9.38;;
37781;SDS011;23621;50.878;4.584;2023-06-10T04:26:45;10.60;;;9.80;;
37781;SDS011;23621;50.878;4.584;2023-06-10T04:29:32;10.75;;;9.88;;
37781;SDS011;23621;50.878;4.584;2023-06-10T04:32:20;10.80;;;9.73;;
37781;SDS011;23621;50.878;4.584;2023-06-10T04:35:08;9.60;;;8.80;;
37781;SDS011;23621;50.878;4.584;2023-06-10T04:37:59;10.65;;;9.75;;
37781;SDS011;23621;50.878;4.584;2023-06-10T04:40:46;10.63;;;9.70;;
37781;SDS011;23621;50.878;4.584;2023-06-10T04:43:34;11.52;;;10.32;;
37781;SDS011;23621;50.878;4.584;2023-06-10T04:46:21;10.57;;;9.68;;
37781;SDS011;23621;50.878;4.584;2023-06-10T04:49:09;11.50;;;10.35;;
37781;SDS011;23621;50.878;4.584;2023-06-10T04:51:56;10.63;;;9.63;;
37781;SDS011;23621;50.878;4.584;2023-06-10T04:54:44;11.02;;;9.98;;
37781;SDS011;23621;50.878;4.584;2023-06-10T04:57:31;11.85;;;10.75;;
37781;SDS011;23621;50.878;4.584;2023-06-10T05:00:18;11.32;;;10.32;;
37781;SDS011;23621;50.878;4.584;2023-06-10T05:03:06;11.15;;;10.25;;
37781;SDS011;23621;50.878;4.584;2023-06-10T05:05:53;11.63;;;9.77;;
37781;SDS011;23621;50.878;4.584;2023-06-10T05:08:41;11.30;;;10.25;;
37781;SDS011;23621;50.878;4.584;2023-06-10T05:11:28;12.90;;;11.50;;
37781;SDS011;23621;50.878;4.584;2023-06-10T05:14:15;11.63;;;10.52;;
37781;SDS011;23621;50.878;4.584;2023-06-10T05:17:05;11.25;;;10.25;;
37781;SDS011;23621;50.878;4.584;2023-06-10T05:19:52;11.30;;;10.20;;
37781;SDS011;23621;50.878;4.584;2023-06-10T05:22:40;11.50;;;10.23;;
37781;SDS011;23621;50.878;4.584;2023-06-10T05:25:28;11.00;;;10.10;;
37781;SDS011;23621;50.878;4.584;2023-06-10T05:28:17;11.45;;;10.45;;
37781;SDS011;23621;50.878;4.584;2023-06-10T05:31:05;12.05;;;10.95;;
37781;SDS011;23621;50.878;4.584;2023-06-10T05:33:52;11.93;;;10.73;;
37781;SDS011;23621;50.878;4.584;2023-06-10T05:36:39;12.00;;;10.80;;
37781;SDS011;23621;50.878;4.584;2023-06-10T05:39:26;11.30;;;10.30;;
37781;SDS011;23621;50.878;4.584;2023-06-10T05:42:14;11.63;;;10.48;;
37781;SDS011;23621;50.878;4.584;2023-06-10T05:45:01;10.85;;;9.85;;
37781;SDS011;23621;50.878;4.584;2023-06-10T05:47:49;9.52;;;8.73;;
37781;SDS011;23621;50.878;4.584;2023-06-10T05:50:37;11.20;;;10.15;;
37781;SDS011;23621;50.878;4.584;2023-06-10T05:53:26;10.23;;;9.20;;
37781;SDS011;23621;50.878;4.584;2023-06-10T05:56:14;10.98;;;9.98;;
37781;SDS011;23621;50.878;4.584;2023-06-10T05:59:01;10.55;;;9.40;;
37781;SDS011;23621;50.878;4.584;2023-06-10T06:01:49;10.77;;;9.65;;
37781;SDS011;23621;50.878;4.584;2023-06-10T06:04:39;10.57;;;9.65;;
37781;SDS011;23621;50.878;4.584;2023-06-10T06:07:26;10.10;;;8.65;;
37781;SDS011;23621;50.878;4.584;2023-06-10T06:10:13;10.40;;;9.30;;
37781;SDS011;23621;50.878;4.584;2023-06-10T06:13:03;10.73;;;9.48;;
37781;SDS011;23621;50.878;4.584;2023-06-10T06:15:50;10.68;;;9.77;;
37781;SDS011;23621;50.878;4.584;2023-06-10T06:18:37;10.70;;;9.70;;
37781;SDS011;23621;50.878;4.584;2023-06-10T06:21:25;10.85;;;9.85;;
37781;SDS011;23621;50.878;4.584;2023-06-10T06:24:12;10.38;;;9.20;;
37781;SDS011;23621;50.878;4.584;2023-06-10T06:27:00;10.15;;;9.10;;
37781;SDS011;23621;50.878;4.584;2023-06-10T06:29:48;10.30;;;9.20;;
37781;SDS011;23621;50.878;4.584;2023-06-10T06:32:36;10.10;;;9.30;;
37781;SDS011;23621;50.878;4.584;2023-06-10T06:35:24;11.05;;;9.10;;
37781;SDS011;23621;50.878;4.584;2023-06-10T06:38:11;10.63;;;9.65;;
37781;SDS011;23621;50.878;4.584;2023-06-10T06:40:58;10.63;;;9.65;;
37781;SDS011;23621;50.878;4.584;2023-06-10T06:43:49;9.60;;;8.80;;
37781;SDS011;23621;50.878;4.584;2023-06-10T06:46:37;10.10;;;8.95;;
37781;SDS011;23621;50.878;4.584;2023-06-10T06:49:24;9.38;;;8.60;;
37781;SDS011;23621;50.878;4.584;2023-06-10T06:52:11;10.35;;;9.25;;
37781;SDS011;23621;50.878;4.584;2023-06-10T06:54:59;9.80;;;9.00;;
37781;SDS011;23621;50.878;4.584;2023-06-10T06:57:46;9.90;;;9.00;;
37781;SDS011;23621;50.878;4.584;2023-06-10T07:00:34;15.30;;;9.02;;
37781;SDS011;23621;50.878;4.584;2023-06-10T07:03:21;8.82;;;8.02;;
37781;SDS011;23621;50.878;4.584;2023-06-10T07:06:08;9.05;;;8.15;;
37781;SDS011;23621;50.878;4.584;2023-06-10T07:08:55;9.55;;;8.57;;
37781;SDS011;23621;50.878;4.584;2023-06-10T07:11:43;9.25;;;8.30;;
37781;SDS011;23621;50.878;4.584;2023-06-10T07:14:30;9.02;;;8.23;;
37781;SDS011;23621;50.878;4.584;2023-06-10T07:17:17;7.97;;;7.22;;
37781;SDS011;23621;50.878;4.584;2023-06-10T07:20:05;9.23;;;8.43;;
37781;SDS011;23621;50.878;4.584;2023-06-10T07:22:52;9.02;;;8.13;;
37781;SDS011;23621;50.878;4.584;2023-06-10T07:25:41;8.57;;;7.57;;
37781;SDS011;23621;50.878;4.584;2023-06-10T07:28:28;8.80;;;7.93;;
37781;SDS011;23621;50.878;4.584;2023-06-10T07:31:15;8.93;;;8.13;;
37781;SDS011;23621;50.878;4.584;2023-06-10T07:34:03;8.27;;;7.47;;
37781;SDS011;23621;50.878;4.584;2023-06-10T07:36:50;8.82;;;8.13;;
37781;SDS011;23621;50.878;4.584;2023-06-10T07:39:37;8.48;;;7.72;;
37781;SDS011;23621;50.878;4.584;2023-06-10T07:42:24;8.82;;;7.97;;
37781;SDS011;23621;50.878;4.584;2023-06-10T07:45:12;8.65;;;7.72;;
37781;SDS011;23621;50.878;4.584;2023-06-10T07:47:59;9.50;;;7.25;;
37781;SDS011;23621;50.878;4.584;2023-06-10T07:50:46;8.10;;;7.30;;
37781;SDS011;23621;50.878;4.584;2023-06-10T07:53:34;8.55;;;7.72;;
37781;SDS011;23621;50.878;4.584;2023-06-10T07:56:21;8.00;;;7.30;;
37781;SDS011;23621;50.878;4.584;2023-06-10T07:59:08;9.25;;;7.72;;
37781;SDS011;23621;50.878;4.584;2023-06-10T08:01:56;8.93;;;7.95;;
37781;SDS011;23621;50.878;4.584;2023-06-10T08:04:43;8.02;;;7.40;;
37781;SDS011;23621;50.878;4.584;2023-06-10T08:07:30;7.78;;;7.07;;
37781;SDS011;23621;50.878;4.584;2023-06-10T08:10:18;9.70;;;7.35;;
37781;SDS011;23621;50.878;4.584;2023-06-10T08:13:07;7.32;;;6.63;;
37781;SDS011;23621;50.878;4.584;2023-06-10T08:15:55;8.13;;;7.40;;
37781;SDS011;23621;50.878;4.584;2023-06-10T08:18:42;8.57;;;7.70;;
37781;SDS011;23621;50.878;4.584;2023-06-10T08:21:29;8.63;;;7.85;;
37781;SDS011;23621;50.878;4.584;2023-06-10T08:24:16;8.18;;;7.22;;
37781;SDS011;23621;50.878;4.584;2023-06-10T08:27:05;9.07;;;7.18;;
37781;SDS011;23621;50.878;4.584;2023-06-10T08:29:53;7.65;;;6.95;;
37781;SDS011;23621;50.878;4.584;2023-06-10T08:32:40;8.07;;;7.28;;
37781;SDS011;23621;50.878;4.584;2023-06-10T08:35:27;7.35;;;6.65;;
37781;SDS011;23621;50.878;4.584;2023-06-10T08:38:14;7.32;;;6.55;;
37781;SDS011;23621;50.878;4.584;2023-06-10T08:41:02;7.68;;;6.93;;
37781;SDS011;23621;50.878;4.584;2023-06-10T08:44:02;7.00;;;6.40;;
37781;SDS011;23621;50.878;4.584;2023-06-10T08:46:56;8.23;;;6.60;;
37781;SDS011;23621;50.878;4.584;2023-06-10T08:49:47;7.50;;;6.68;;
37781;SDS011;23621;50.878;4.584;2023-06-10T08:52:35;7.85;;;6.65;;
37781;SDS011;23621;50.878;4.584;2023-06-10T08:55:29;6.82;;;6.22;;
37781;SDS011;23621;50.878;4.584;2023-06-10T08:58:21;6.70;;;6.10;;
37781;SDS011;23621;50.878;4.584;2023-06-10T09:01:09;7.20;;;6.05;;
37781;SDS011;23621;50.878;4.584;2023-06-10T09:03:58;6.55;;;5.95;;
37781;SDS011;23621;50.878;4.584;2023-06-10T09:06:46;6.60;;;6.00;;
37781;SDS011;23621;50.878;4.584;2023-06-10T09:09:37;6.75;;;5.55;;
37781;SDS011;23621;50.878;4.584;2023-06-10T09:12:25;6.93;;;6.35;;
37781;SDS011;23621;50.878;4.584;2023-06-10T09:15:12;6.80;;;5.80;;
37781;SDS011;23621;50.878;4.584;2023-06-10T09:18:01;6.07;;;5.60;;
37781;SDS011;23621;50.878;4.584;2023-06-10T09:20:48;6.47;;;5.88;;
37781;SDS011;23621;50.878;4.584;2023-06-10T09:23:36;6.57;;;5.97;;
37781;SDS011;23621;50.878;4.584;2023-06-10T09:26:27;6.50;;;5.90;;
37781;SDS011;23621;50.878;4.584;2023-06-10T09:29:16;6.18;;;5.57;;
37781;SDS011;23621;50.878;4.584;2023-06-10T09:32:04;7.40;;;6.32;;
37781;SDS011;23621;50.878;4.584;2023-06-10T09:34:55;6.40;;;5.78;;
37781;SDS011;23621;50.878;4.584;2023-06-10T09:37:43;8.25;;;5.85;;
37781;SDS011;23621;50.878;4.584;2023-06-10T09:40:31;6.20;;;5.65;;
37781;SDS011;23621;50.878;4.584;2023-06-10T09:43:18;7.53;;;5.97;;
37781;SDS011;23621;50.878;4.584;2023-06-10T09:46:06;6.28;;;5.68;;
37781;SDS011;23621;50.878;4.584;2023-06-10T09:48:53;6.45;;;5.72;;
37781;SDS011;23621;50.878;4.584;2023-06-10T09:51:50;6.45;;;5.95;;
37781;SDS011;23621;50.878;4.584;2023-06-10T09:54:39;6.95;;;6.22;;
37781;SDS011;23621;50.878;4.584;2023-06-10T09:57:26;6.65;;;6.13;;
37781;SDS011;23621;50.878;4.584;2023-06-10T10:00:21;7.68;;;6.03;;
37781;SDS011;23621;50.878;4.584;2023-06-10T10:03:09;6.38;;;5.88;;
37781;SDS011;23621;50.878;4.584;2023-06-10T10:06:08;6.57;;;6.03;;
37781;SDS011;23621;50.878;4.584;2023-06-10T10:08:56;8.23;;;5.95;;
37781;SDS011;23621;50.878;4.584;2023-06-10T10:11:44;6.10;;;5.50;;
37781;SDS011;23621;50.878;4.584;2023-06-10T10:14:32;7.03;;;6.43;;
37781;SDS011;23621;50.878;4.584;2023-06-10T10:17:20;8.05;;;6.18;;
37781;SDS011;23621;50.878;4.584;2023-06-10T10:20:11;7.40;;;6.30;;
37781;SDS011;23621;50.878;4.584;2023-06-10T10:23:02;6.80;;;6.20;;
37781;SDS011;23621;50.878;4.584;2023-06-10T10:25:54;6.55;;;6.00;;
37781;SDS011;23621;50.878;4.584;2023-06-10T10:28:46;11.23;;;6.13;;
37781;SDS011;23621;50.878;4.584;2023-06-10T10:31:40;6.22;;;5.72;;
37781;SDS011;23621;50.878;4.584;2023-06-10T10:34:53;8.10;;;6.43;;
37781;SDS011;23621;50.878;4.584;2023-06-10T10:37:43;7.45;;;6.68;;
37781;SDS011;23621;50.878;4.584;2023-06-10T10:40:31;6.18;;;5.63;;
37781;SDS011;23621;50.878;4.584;2023-06-10T10:43:19;6.28;;;5.68;;
37781;SDS011;23621;50.878;4.584;2023-06-10T10:46:11;7.32;;;6.03;;
37781;SDS011;23621;50.878;4.584;2023-06-10T10:49:00;9.45;;;6.78;;
37781;SDS011;23621;50.878;4.584;2023-06-10T10:51:55;8.50;;;6.63;;
37781;SDS011;23621;50.878;4.584;2023-06-10T10:54:52;6.93;;;6.32;;
37781;SDS011;23621;50.878;4.584;2023-06-10T10:57:41;6.18;;;5.57;;
37781;SDS011;23621;50.878;4.584;2023-06-10T11:00:35;6.13;;;5.57;;
37781;SDS011;23621;50.878;4.584;2023-06-10T11:03:28;6.40;;;5.80;;
37781;SDS011;23621;50.878;4.584;2023-06-10T11:06:19;7.13;;;6.07;;
37781;SDS011;23621;50.878;4.584;2023-06-10T11:09:25;6.35;;;5.85;;
37781;SDS011;23621;50.878;4.584;2023-06-10T11:12:21;6.10;;;5.60;;
37781;SDS011;23621;50.878;4.584;2023-06-10T11:15:10;6.25;;;5.65;;
37781;SDS011;23621;50.878;4.584;2023-06-10T11:21:00;6.57;;;5.97;;
37781;SDS011;23621;50.878;4.584;2023-06-10T11:23:53;7.70;;;5.65;;
37781;SDS011;23621;50.878;4.584;2023-06-10T11:26:44;6.95;;;6.30;;
37781;SDS011;23621;50.878;4.584;2023-06-10T11:29:31;6.65;;;6.03;;
37781;SDS011;23621;50.878;4.584;2023-06-10T11:32:18;8.07;;;6.50;;
37781;SDS011;23621;50.878;4.584;2023-06-10T11:35:06;6.50;;;5.90;;
37781;SDS011;23621;50.878;4.584;2023-06-10T11:37:54;6.72;;;6.05;;
37781;SDS011;23621;50.878;4.584;2023-06-10T11:40:46;7.40;;;6.72;;
37781;SDS011;23621;50.878;4.584;2023-06-10T11:43:36;6.50;;;5.90;;
37781;SDS011;23621;50.878;4.584;2023-06-10T11:46:33;7.20;;;6.50;;
37781;SDS011;23621;50.878;4.584;2023-06-10T11:49:21;6.97;;;6.30;;
37781;SDS011;23621;50.878;4.584;2023-06-10T11:52:08;7.28;;;6.57;;
37781;SDS011;23621;50.878;4.584;2023-06-10T11:54:56;7.35;;;6.22;;
37781;SDS011;23621;50.878;4.584;2023-06-10T11:57:43;7.63;;;6.45;;
37781;SDS011;23621;50.878;4.584;2023-06-10T12:00:30;5.88;;;5.38;;
37781;SDS011;23621;50.878;4.584;2023-06-10T12:03:18;6.95;;;6.35;;
37781;SDS011;23621;50.878;4.584;2023-06-10T12:06:05;10.10;;;6.13;;
37781;SDS011;23621;50.878;4.584;2023-06-10T12:08:53;5.95;;;5.43;;
37781;SDS011;23621;50.878;4.584;2023-06-10T12:12:03;8.00;;;6.25;;
37781;SDS011;23621;50.878;4.584;2023-06-10T12:14:54;6.78;;;6.20;;
37781;SDS011;23621;50.878;4.584;2023-06-10T12:17:43;8.25;;;6.30;;
37781;SDS011;23621;50.878;4.584;2023-06-10T12:20:33;6.05;;;5.55;;
37781;SDS011;23621;50.878;4.584;2023-06-10T12:23:22;7.13;;;5.90;;
37781;SDS011;23621;50.878;4.584;2023-06-10T12:26:10;6.20;;;5.47;;
37781;SDS011;23621;50.878;4.584;2023-06-10T12:28:57;6.90;;;5.97;;
37781;SDS011;23621;50.878;4.584;2023-06-10T12:32:03;6.57;;;6.07;;
37781;SDS011;23621;50.878;4.584;2023-06-10T12:35:02;7.18;;;6.05;;
37781;SDS011;23621;50.878;4.584;2023-06-10T12:37:57;9.15;;;5.95;;
37781;SDS011;23621;50.878;4.584;2023-06-10T12:40:50;6.15;;;5.60;;
37781;SDS011;23621;50.878;4.584;2023-06-10T12:43:37;6.75;;;6.05;;
37781;SDS011;23621;50.878;4.584;2023-06-10T12:46:35;5.65;;;5.15;;
37781;SDS011;23621;50.878;4.584;2023-06-10T12:49:23;10.50;;;5.82;;
37781;SDS011;23621;50.878;4.584;2023-06-10T12:52:10;7.57;;;5.72;;
37781;SDS011;23621;50.878;4.584;2023-06-10T12:54:58;5.88;;;5.47;;
37781;SDS011;23621;50.878;4.584;2023-06-10T12:57:47;6.43;;;5.80;;
37781;SDS011;23621;50.878;4.584;2023-06-10T13:00:36;7.15;;;5.93;;
37781;SDS011;23621;50.878;4.584;2023-06-10T13:03:23;6.10;;;5.60;;
37781;SDS011;23621;50.878;4.584;2023-06-10T13:06:10;6.63;;;6.03;;
37781;SDS011;23621;50.878;4.584;2023-06-10T13:08:58;5.78;;;5.28;;
37781;SDS011;23621;50.878;4.584;2023-06-10T13:11:45;5.95;;;5.40;;
37781;SDS011;23621;50.878;4.584;2023-06-10T13:14:33;8.35;;;5.63;;
37781;SDS011;23621;50.878;4.584;2023-06-10T13:17:20;9.13;;;5.80;;
37781;SDS011;23621;50.878;4.584;2023-06-10T13:20:08;7.22;;;6.10;;
37781;SDS011;23621;50.878;4.584;2023-06-10T13:22:56;6.22;;;5.72;;
37781;SDS011;23621;50.878;4.584;2023-06-10T13:25:43;6.80;;;6.13;;
37781;SDS011;23621;50.878;4.584;2023-06-10T13:28:31;5.85;;;5.35;;
37781;SDS011;23621;50.878;4.584;2023-06-10T13:31:21;6.55;;;5.68;;
37781;SDS011;23621;50.878;4.584;2023-06-10T13:34:09;6.18;;;5.57;;
37781;SDS011;23621;50.878;4.584;2023-06-10T13:36:57;6.35;;;5.85;;
37781;SDS011;23621;50.878;4.584;2023-06-10T13:39:45;7.35;;;6.25;;
37781;SDS011;23621;50.878;4.584;2023-06-10T13:42:38;6.22;;;5.70;;
37781;SDS011;23621;50.878;4.584;2023-06-10T13:45:25;6.20;;;5.70;;
37781;SDS011;23621;50.878;4.584;2023-06-10T13:48:13;6.78;;;6.18;;
37781;SDS011;23621;50.878;4.584;2023-06-10T13:51:00;8.77;;;5.88;;
37781;SDS011;23621;50.878;4.584;2023-06-10T13:53:47;6.78;;;6.07;;
37781;SDS011;23621;50.878;4.584;2023-06-10T13:56:35;9.32;;;5.68;;
37781;SDS011;23621;50.878;4.584;2023-06-10T13:59:25;6.68;;;5.82;;
37781;SDS011;23621;50.878;4.584;2023-06-10T14:02:13;6.78;;;6.18;;
37781;SDS011;23621;50.878;4.584;2023-06-10T14:05:00;6.43;;;5.93;;
37781;SDS011;23621;50.878;4.584;2023-06-10T14:07:48;6.60;;;5.97;;
37781;SDS011;23621;50.878;4.584;2023-06-10T14:10:35;7.15;;;6.50;;
37781;SDS011;23621;50.878;4.584;2023-06-10T14:13:22;6.40;;;5.80;;
37781;SDS011;23621;50.878;4.584;2023-06-10T14:16:10;6.20;;;5.60;;
37781;SDS011;23621;50.878;4.584;2023-06-10T14:18:57;6.85;;;5.53;;
37781;SDS011;23621;50.878;4.584;2023-06-10T14:21:44;6.60;;;6.10;;
37781;SDS011;23621;50.878;4.584;2023-06-10T14:24:32;6.03;;;5.57;;
37781;SDS011;23621;50.878;4.584;2023-06-10T14:27:19;6.90;;;5.97;;
37781;SDS011;23621;50.878;4.584;2023-06-10T14:30:07;6.63;;;5.95;;
37781;SDS011;23621;50.878;4.584;2023-06-10T14:32:55;6.47;;;5.88;;
37781;SDS011;23621;50.878;4.584;2023-06-10T14:35:42;6.72;;;6.10;;
37781;SDS011;23621;50.878;4.584;2023-06-10T14:38:29;6.80;;;6.10;;
37781;SDS011;23621;50.878;4.584;2023-06-10T14:41:17;6.55;;;5.95;;
37781;SDS011;23621;50.878;4.584;2023-06-10T14:44:04;7.15;;;5.40;;
37781;SDS011;23621;50.878;4.584;2023-06-10T14:46:51;6.45;;;5.65;;
37781;SDS011;23621;50.878;4.584;2023-06-10T14:49:38;6.10;;;5.60;;
37781;SDS011;23621;50.878;4.584;2023-06-10T14:52:28;6.68;;;6.05;;
37781;SDS011;23621;50.878;4.584;2023-06-10T14:55:16;7.70;;;6.05;;
37781;SDS011;23621;50.878;4.584;2023-06-10T14:58:03;6.72;;;5.78;;
37781;SDS011;23621;50.878;4.584;2023-06-10T15:00:50;6.35;;;5.85;;
37781;SDS011;23621;50.878;4.584;2023-06-10T15:03:38;6.45;;;5.82;;
37781;SDS011;23621;50.878;4.584;2023-06-10T15:06:25;7.15;;;5.80;;
37781;SDS011;23621;50.878;4.584;2023-06-10T15:09:13;6.93;;;6.10;;
37781;SDS011;23621;50.878;4.584;2023-06-10T15:12:00;6.55;;;5.95;;
37781;SDS011;23621;50.878;4.584;2023-06-10T15:14:47;5.97;;;5.47;;
37781;SDS011;23621;50.878;4.584;2023-06-10T15:17:35;5.97;;;5.47;;
37781;SDS011;23621;50.878;4.584;2023-06-10T15:20:22;6.70;;;6.03;;
37781;SDS011;23621;50.878;4.584;2023-06-10T15:23:10;10.13;;;5.72;;
37781;SDS011;23621;50.878;4.584;2023-06-10T15:25:57;6.15;;;5.57;;
37781;SDS011;23621;50.878;4.584;2023-06-10T15:28:45;6.65;;;5.45;;
37781;SDS011;23621;50.878;4.584;2023-06-10T15:31:35;5.90;;;5.40;;
37781;SDS011;23621;50.878;4.584;2023-06-10T15:34:23;7.00;;;5.65;;
37781;SDS011;23621;50.878;4.584;2023-06-10T15:37:10;6.45;;;5.90;;
37781;SDS011;23621;50.878;4.584;2023-06-10T15:39:57;6.07;;;5.57;;
37781;SDS011;23621;50.878;4.584;2023-06-10T15:42:45;5.90;;;5.40;;
37781;SDS011;23621;50.878;4.584;2023-06-10T15:45:32;7.60;;;5.55;;
37781;SDS011;23621;50.878;4.584;2023-06-10T15:48:21;5.72;;;5.32;;
37781;SDS011;23621;50.878;4.584;2023-06-10T15:51:09;6.38;;;5.60;;
37781;SDS011;23621;50.878;4.584;2023-06-10T15:53:56;5.97;;;5.40;;
37781;SDS011;23621;50.878;4.584;2023-06-10T15:56:44;5.78;;;5.30;;
37781;SDS011;23621;50.878;4.584;2023-06-10T15:59:31;5.80;;;5.40;;
37781;SDS011;23621;50.878;4.584;2023-06-10T16:02:18;6.03;;;5.03;;
37781;SDS011;23621;50.878;4.584;2023-06-10T16:05:07;5.85;;;5.25;;
37781;SDS011;23621;50.878;4.584;2023-06-10T16:07:56;5.88;;;5.38;;
37781;SDS011;23621;50.878;4.584;2023-06-10T16:10:48;6.75;;;5.43;;
37781;SDS011;23621;50.878;4.584;2023-06-10T16:13:36;5.57;;;5.07;;
37781;SDS011;23621;50.878;4.584;2023-06-10T16:16:28;5.78;;;5.20;;
37781;SDS011;23621;50.878;4.584;2023-06-10T16:19:15;5.20;;;4.80;;
37781;SDS011;23621;50.878;4.584;2023-06-10T16:22:04;5.32;;;4.82;;
37781;SDS011;23621;50.878;4.584;2023-06-10T16:24:56;5.50;;;5.00;;
37781;SDS011;23621;50.878;4.584;2023-06-10T16:27:43;5.80;;;5.30;;
37781;SDS011;23621;50.878;4.584;2023-06-10T16:30:31;5.28;;;4.78;;
37781;SDS011;23621;50.878;4.584;2023-06-10T16:33:19;5.63;;;5.20;;
37781;SDS011;23621;50.878;4.584;2023-06-10T16:36:06;5.55;;;5.05;;
37781;SDS011;23621;50.878;4.584;2023-06-10T16:38:54;5.60;;;5.05;;
37781;SDS011;23621;50.878;4.584;2023-06-10T16:41:41;5.68;;;5.15;;
37781;SDS011;23621;50.878;4.584;2023-06-10T16:44:28;5.15;;;4.68;;
37781;SDS011;23621;50.878;4.584;2023-06-10T16:47:15;5.38;;;4.97;;
37781;SDS011;23621;50.878;4.584;2023-06-10T16:50:03;5.97;;;5.20;;
37781;SDS011;23621;50.878;4.584;2023-06-10T16:52:52;5.43;;;4.95;;
37781;SDS011;23621;50.878;4.584;2023-06-10T16:55:39;7.35;;;4.90;;